Capitol Logistics 2606

Operating for CKS



KSFO
San Francisco International Airport
San Francisco, California
KCVG
Cincinnati/Northern Kentucky International Airport
Covington, Kentucky

Activity Log

Date Flight Route Aircraft Duration
06/30/2021 CPX7568 TRUKN2 TIPRE Q126 INSLO DTA DBL GLD KK54G ENL SARGO3 A30F 4h 13m

Route Details

Aircraft Information
Primary: Boeing 767-300BDSF
Backup: Airbus A300-600F
Route Data
Distance: 2033nm
Duration: 3h 43m
Recm'd Route: TRUKN2 SYRAH Q128 FLOOD J28 PUB J64 HLC J80 MCI J24 STL ENL SARGO3
Origin Wx: KSFO 020456Z 27010KT 10SM FEW015 17/12 A3008 RMK AO2 SLP184 T01720117 $
Dest. Wx: KCVG 020452Z 34006KT 10SM CLR 18/12 A3007 RMK AO2 SLP174 T01830122 402720139
Notes: